createdAt,value
2023-01-25T00:01:49.252Z,13.57
2023-01-25T00:04:16.400Z,14.50
2023-01-25T00:06:43.515Z,15.77
2023-01-25T00:09:11.186Z,15.17
2023-01-25T00:11:38.386Z,15.40
2023-01-25T00:14:06.284Z,15.93
2023-01-25T00:16:33.522Z,15.17
2023-01-25T00:19:00.718Z,15.67
2023-01-25T00:21:27.884Z,12.17
2023-01-25T00:23:55.062Z,12.23
2023-01-25T00:26:22.512Z,9.47
2023-01-25T00:28:50.999Z,13.97
2023-01-25T00:31:33.359Z,14.97
2023-01-25T00:34:08.703Z,14.90
2023-01-25T00:36:38.615Z,12.60
2023-01-25T00:39:11.981Z,13.83
2023-01-25T00:41:39.146Z,13.80
2023-01-25T00:44:06.706Z,13.77
2023-01-25T00:46:33.839Z,14.57
2023-01-25T00:49:00.970Z,13.97
2023-01-25T00:51:28.082Z,13.10
2023-01-25T00:53:55.299Z,13.20
2023-01-25T00:56:22.406Z,13.50
2023-01-25T00:58:49.537Z,13.87
2023-01-25T01:01:16.690Z,14.20
2023-01-25T01:03:43.819Z,13.60
2023-01-25T01:06:12.031Z,13.57
2023-01-25T01:08:40.257Z,13.67
2023-01-25T01:11:08.946Z,13.27
2023-01-25T01:13:36.118Z,13.57
2023-01-25T01:16:05.844Z,14.40
2023-01-25T01:18:37.079Z,13.10
2023-01-25T01:21:04.632Z,13.50
2023-01-25T01:23:32.494Z,12.97
2023-01-25T01:26:03.633Z,13.87
2023-01-25T01:28:31.208Z,13.47
2023-01-25T01:31:01.904Z,13.90
2023-01-25T01:33:29.116Z,13.93
2023-01-25T01:35:56.309Z,12.00
2023-01-25T01:38:23.449Z,11.50
2023-01-25T01:40:51.022Z,13.37
2023-01-25T01:43:24.835Z,13.00
2023-01-25T01:45:55.091Z,13.37
2023-01-25T01:48:30.326Z,14.90
2023-01-25T01:51:23.585Z,14.50
2023-01-25T01:53:53.571Z,13.93
2023-01-25T01:56:26.167Z,15.07
2023-01-25T01:58:54.200Z,14.40
2023-01-25T02:01:21.539Z,15.17
2023-01-25T02:03:49.732Z,14.73
2023-01-25T02:06:21.159Z,13.53
2023-01-25T02:08:48.427Z,14.43
2023-01-25T02:11:15.599Z,14.37
2023-01-25T02:13:42.767Z,13.53
2023-01-25T02:16:16.988Z,14.53
2023-01-25T02:18:44.357Z,14.03
2023-01-25T02:21:11.811Z,14.67
2023-01-25T02:24:01.510Z,14.50
2023-01-25T02:26:28.666Z,14.27
2023-01-25T02:29:04.236Z,14.03
2023-01-25T02:31:31.440Z,14.53
2023-01-25T02:33:58.698Z,14.87
2023-01-25T02:36:29.834Z,14.77
2023-01-25T02:38:59.089Z,15.40
2023-01-25T02:41:29.222Z,16.00
2023-01-25T02:43:56.336Z,14.60
2023-01-25T02:46:27.485Z,15.23
2023-01-25T02:48:56.108Z,12.20
2023-01-25T02:51:24.817Z,13.57
2023-01-25T02:53:52.187Z,14.07
2023-01-25T02:56:19.507Z,13.13
2023-01-25T03:02:08.857Z,12.17
2023-01-25T03:04:35.975Z,13.80
2023-01-25T03:07:03.160Z,12.63
2023-01-25T03:09:30.275Z,13.83
2023-01-25T03:11:57.395Z,13.43
2023-01-25T03:14:24.505Z,14.37
2023-01-25T03:16:51.655Z,14.13
2023-01-25T03:19:18.819Z,15.37
2023-01-25T03:21:46.837Z,16.07
2023-01-25T03:24:14.220Z,13.90
2023-01-25T03:27:00.097Z,14.73
2023-01-25T03:29:27.210Z,14.80
2023-01-25T03:31:54.508Z,14.40
2023-01-25T03:34:21.659Z,13.50
2023-01-25T03:36:48.779Z,13.47
2023-01-25T03:39:15.952Z,14.67
2023-01-25T03:41:43.064Z,14.10
2023-01-25T03:44:13.336Z,13.13
2023-01-25T03:46:41.280Z,13.57
2023-01-25T03:49:08.653Z,13.50
2023-01-25T03:51:36.167Z,14.13
2023-01-25T03:54:03.445Z,14.70
2023-01-25T03:56:30.575Z,15.13
2023-01-25T03:58:57.685Z,14.20
2023-01-25T04:01:24.826Z,14.73
2023-01-25T04:03:51.957Z,15.07
2023-01-25T04:06:19.077Z,15.50
2023-01-25T04:08:46.256Z,14.33
2023-01-25T04:11:13.390Z,15.20
2023-01-25T04:13:40.651Z,14.70
2023-01-25T04:16:09.444Z,15.33
2023-01-25T04:18:36.605Z,15.87
2023-01-25T04:21:03.844Z,16.37
2023-01-25T04:23:31.127Z,16.57
2023-01-25T04:25:59.683Z,16.50
2023-01-25T04:28:27.164Z,16.23
2023-01-25T04:30:55.265Z,15.87
2023-01-25T04:33:22.631Z,16.33
2023-01-25T04:35:49.733Z,16.83
2023-01-25T04:38:17.143Z,15.80
2023-01-25T04:40:44.553Z,15.10
2023-01-25T04:43:13.343Z,14.53
2023-01-25T04:45:40.519Z,15.80
2023-01-25T04:48:09.971Z,14.83
2023-01-25T04:50:37.838Z,14.57
2023-01-25T04:53:05.441Z,13.90
2023-01-25T04:55:33.842Z,15.20
2023-01-25T04:58:01.657Z,15.27
2023-01-25T05:00:29.303Z,15.60
2023-01-25T05:02:56.652Z,14.80
2023-01-25T05:05:23.800Z,15.20
2023-01-25T05:07:50.926Z,15.63
2023-01-25T05:10:18.098Z,13.93
2023-01-25T05:12:45.240Z,13.63
2023-01-25T05:15:12.668Z,15.63
2023-01-25T05:17:39.840Z,15.27
2023-01-25T05:20:07.134Z,14.23
2023-01-25T05:22:34.272Z,14.37
2023-01-25T05:25:02.913Z,14.93
2023-01-25T05:27:30.028Z,14.97
2023-01-25T05:29:57.713Z,14.13
2023-01-25T05:32:25.219Z,14.90
2023-01-25T05:34:52.418Z,15.47
2023-01-25T05:37:20.363Z,13.57
2023-01-25T05:39:47.510Z,14.97
2023-01-25T05:42:15.900Z,14.40
2023-01-25T05:44:44.814Z,14.57
2023-01-25T05:47:14.289Z,15.70
2023-01-25T05:49:41.571Z,14.70
2023-01-25T05:52:08.769Z,15.20
2023-01-25T05:54:35.900Z,14.87
2023-01-25T05:57:03.234Z,14.83
2023-01-25T05:59:30.371Z,15.77
2023-01-25T06:01:57.551Z,15.17
2023-01-25T06:04:24.714Z,16.60
2023-01-25T06:06:51.848Z,14.17
2023-01-25T06:09:18.981Z,14.70
2023-01-25T06:11:46.399Z,14.87
2023-01-25T06:14:13.896Z,15.13
2023-01-25T06:16:41.094Z,14.90
2023-01-25T06:19:09.010Z,16.03
2023-01-25T06:21:39.097Z,15.90
2023-01-25T06:24:06.510Z,16.03
2023-01-25T06:26:33.800Z,16.47
2023-01-25T06:29:00.955Z,16.03
2023-01-25T06:31:28.204Z,16.30
2023-01-25T06:33:55.424Z,16.40
2023-01-25T06:36:23.273Z,16.83
2023-01-25T06:38:51.211Z,18.10
2023-01-25T06:41:19.236Z,18.20
2023-01-25T06:43:47.875Z,21.07
2023-01-25T06:46:15.290Z,21.87
2023-01-25T06:48:45.789Z,20.10
2023-01-25T06:51:13.902Z,18.63
2023-01-25T06:53:42.352Z,21.47
2023-01-25T06:56:11.884Z,20.23
2023-01-25T06:58:39.261Z,19.07
2023-01-25T07:01:13.246Z,17.67
2023-01-25T07:03:40.986Z,17.57
2023-01-25T07:06:09.567Z,16.20
2023-01-25T07:08:37.223Z,17.23
2023-01-25T07:11:05.390Z,19.37
2023-01-25T07:13:33.741Z,17.50
2023-01-25T07:16:01.938Z,17.77
2023-01-25T07:18:32.593Z,17.77
2023-01-25T07:21:04.276Z,18.40
2023-01-25T07:23:32.611Z,18.80
2023-01-25T07:25:59.767Z,18.37
2023-01-25T07:28:27.237Z,17.83
2023-01-25T07:30:54.401Z,18.93
2023-01-25T07:33:21.567Z,19.00
2023-01-25T07:35:50.888Z,18.20
2023-01-25T07:38:18.096Z,18.37
2023-01-25T07:40:45.235Z,17.30
2023-01-25T07:43:12.427Z,18.43
2023-01-25T07:45:39.628Z,17.40
2023-01-25T07:48:10.614Z,18.63
2023-01-25T07:50:38.647Z,18.23
2023-01-25T07:53:05.965Z,19.27
2023-01-25T07:55:33.307Z,18.17
2023-01-25T07:58:03.222Z,19.33
2023-01-25T08:00:30.347Z,17.60
2023-01-25T08:02:57.472Z,17.80
2023-01-25T08:05:25.469Z,17.33
2023-01-25T08:07:52.572Z,17.00
2023-01-25T08:10:19.806Z,17.63
2023-01-25T08:12:47.166Z,17.77
2023-01-25T08:15:14.518Z,18.70
2023-01-25T08:17:41.690Z,18.33
2023-01-25T08:20:09.597Z,17.93
2023-01-25T08:22:36.839Z,18.60
2023-01-25T08:25:04.584Z,18.30
2023-01-25T08:27:31.700Z,18.17
2023-01-25T08:29:58.900Z,18.13
2023-01-25T08:32:26.064Z,18.67
2023-01-25T08:34:53.196Z,18.40
2023-01-25T08:37:20.326Z,20.00
2023-01-25T08:39:48.181Z,18.27
2023-01-25T08:42:15.299Z,19.47
2023-01-25T08:44:42.422Z,20.23
2023-01-25T08:47:09.573Z,18.63
2023-01-25T08:49:36.735Z,18.57
2023-01-25T08:52:04.055Z,19.03
2023-01-25T08:54:31.276Z,18.33
2023-01-25T08:56:58.703Z,17.60
2023-01-25T08:59:25.829Z,17.20
2023-01-25T09:01:53.070Z,17.70
2023-01-25T09:04:20.226Z,19.97
2023-01-25T09:06:47.363Z,24.57
2023-01-25T09:09:14.598Z,17.27
2023-01-25T09:11:41.776Z,16.57
2023-01-25T09:14:08.954Z,15.67
2023-01-25T09:16:36.130Z,15.87
2023-01-25T09:19:04.248Z,17.07
2023-01-25T09:21:31.464Z,14.20
2023-01-25T09:24:07.558Z,16.73
2023-01-25T09:26:36.255Z,16.03
2023-01-25T09:29:03.424Z,17.40
2023-01-25T09:31:30.909Z,16.30
2023-01-25T09:33:58.528Z,16.57
2023-01-25T09:36:25.826Z,16.00
2023-01-25T09:38:53.001Z,15.93
2023-01-25T09:41:26.365Z,16.13
2023-01-25T09:44:04.598Z,17.43
2023-01-25T09:46:42.044Z,18.17
2023-01-25T09:49:20.867Z,21.27
2023-01-25T09:52:06.525Z,19.63
2023-01-25T09:54:46.449Z,17.93
2023-01-25T09:57:19.894Z,18.43
2023-01-25T09:59:48.491Z,16.73
2023-01-25T10:02:18.685Z,15.40
2023-01-25T10:04:46.693Z,15.63
2023-01-25T10:07:21.984Z,15.87
2023-01-25T10:09:54.074Z,16.47
2023-01-25T10:12:22.696Z,17.07
2023-01-25T10:14:50.230Z,16.63
2023-01-25T10:17:23.226Z,17.63
2023-01-25T10:19:56.488Z,16.50
2023-01-25T10:22:30.209Z,17.17
2023-01-25T10:25:00.315Z,16.17
2023-01-25T10:27:33.220Z,16.50
2023-01-25T10:30:02.032Z,15.83
2023-01-25T10:32:35.842Z,15.70
2023-01-25T10:35:33.441Z,15.50
2023-01-25T10:38:03.799Z,13.47
2023-01-25T10:40:33.173Z,15.67
2023-01-25T10:43:04.458Z,15.23
2023-01-25T10:45:31.627Z,15.93
2023-01-25T10:48:03.431Z,15.80
2023-01-25T10:50:42.865Z,15.27
2023-01-25T10:53:28.955Z,15.63
2023-01-25T10:55:59.311Z,15.93
2023-01-25T10:58:35.628Z,17.20
2023-01-25T11:01:04.167Z,16.83
2023-01-25T11:03:35.640Z,15.80
2023-01-25T11:06:02.836Z,16.23
2023-01-25T11:08:36.317Z,16.83
2023-01-25T11:11:26.547Z,16.93
2023-01-25T11:13:55.361Z,17.30
2023-01-25T11:16:36.650Z,16.90
2023-01-25T11:19:04.880Z,16.83
2023-01-25T11:21:35.507Z,17.87
2023-01-25T11:24:11.607Z,16.57
2023-01-25T11:26:39.889Z,17.00
2023-01-25T11:29:20.610Z,17.83
2023-01-25T11:31:53.779Z,16.83
2023-01-25T11:34:22.513Z,15.87
2023-01-25T11:36:49.718Z,15.97
2023-01-25T11:39:19.971Z,16.67
2023-01-25T11:41:52.988Z,17.00
2023-01-25T11:44:33.296Z,16.50
2023-01-25T11:47:04.188Z,17.80
2023-01-25T11:49:34.347Z,18.13
2023-01-25T11:52:24.305Z,17.37
2023-01-25T11:55:02.077Z,17.53
2023-01-25T11:57:35.421Z,17.97
2023-01-25T12:00:05.691Z,16.57
2023-01-25T12:02:38.658Z,17.47
2023-01-25T12:05:21.636Z,16.90
2023-01-25T12:08:01.885Z,17.50
2023-01-25T12:10:47.844Z,16.57
2023-01-25T12:13:23.388Z,16.67
2023-01-25T12:15:56.629Z,15.27
2023-01-25T12:18:42.610Z,13.93
2023-01-25T12:21:17.463Z,15.40
2023-01-25T12:24:01.086Z,15.83
2023-01-25T12:26:29.671Z,15.80
2023-01-25T12:28:56.764Z,15.47
2023-01-25T12:31:29.775Z,15.23
2023-01-25T12:34:01.374Z,15.23
2023-01-25T12:36:35.601Z,15.57
2023-01-25T12:39:04.710Z,15.27
2023-01-25T12:41:36.819Z,14.57
2023-01-25T12:44:03.908Z,14.70
2023-01-25T12:46:40.138Z,15.27
2023-01-25T12:49:13.149Z,13.53
2023-01-25T12:51:41.908Z,14.10
2023-01-25T12:54:29.298Z,13.67
2023-01-25T12:57:02.377Z,14.23
2023-01-25T12:59:29.484Z,13.63
2023-01-25T13:01:59.391Z,14.17
2023-01-25T13:04:46.284Z,13.63
2023-01-25T13:07:16.432Z,14.33
2023-01-25T13:09:52.778Z,13.70
2023-01-25T13:12:20.840Z,14.30
2023-01-25T13:14:48.067Z,13.43
2023-01-25T13:17:21.731Z,13.50
2023-01-25T13:19:49.126Z,13.40
2023-01-25T13:22:36.211Z,14.03
2023-01-25T13:25:03.863Z,14.43
2023-01-25T13:27:34.734Z,13.87
2023-01-25T13:30:03.726Z,16.70
2023-01-25T13:32:33.995Z,15.67
2023-01-25T13:35:01.685Z,15.50
2023-01-25T13:37:31.588Z,14.40
2023-01-25T13:40:17.462Z,13.87
2023-01-25T13:42:59.060Z,14.23
2023-01-25T13:45:26.683Z,14.33
2023-01-25T13:48:06.220Z,15.40
2023-01-25T13:50:40.558Z,14.17
2023-01-25T13:53:19.037Z,13.87
2023-01-25T13:55:47.802Z,14.47
2023-01-25T13:58:23.154Z,14.90
2023-01-25T14:00:56.410Z,15.03
2023-01-25T14:03:28.251Z,16.83
2023-01-25T14:05:56.988Z,14.97
2023-01-25T14:08:25.106Z,15.43
2023-01-25T14:10:53.141Z,15.10
2023-01-25T14:13:20.288Z,15.90
2023-01-25T14:15:57.879Z,15.60
2023-01-25T14:18:32.006Z,15.00
2023-01-25T14:21:17.348Z,14.17
2023-01-25T14:23:45.216Z,15.70
2023-01-25T14:26:28.488Z,15.67
2023-01-25T14:29:01.832Z,16.33
2023-01-25T14:31:35.389Z,15.03
2023-01-25T14:34:04.746Z,16.60
2023-01-25T14:36:34.423Z,16.93
2023-01-25T14:39:03.904Z,17.53
2023-01-25T14:41:37.213Z,16.37
2023-01-25T14:44:06.407Z,16.13
2023-01-25T14:46:34.949Z,15.83
2023-01-25T14:49:09.379Z,13.83
2023-01-25T14:51:42.370Z,14.80
2023-01-25T14:54:20.617Z,14.57
2023-01-25T14:56:50.346Z,15.17
2023-01-25T14:59:37.741Z,15.63
2023-01-25T15:02:25.210Z,15.57
2023-01-25T15:04:56.716Z,16.00
2023-01-25T15:07:34.749Z,15.77
2023-01-25T15:10:15.612Z,15.23
2023-01-25T15:12:42.760Z,16.17
2023-01-25T15:15:19.813Z,16.10
2023-01-25T15:17:48.113Z,15.33
2023-01-25T15:20:35.224Z,16.90
2023-01-25T15:23:14.513Z,17.47
2023-01-25T15:25:57.877Z,15.50
2023-01-25T15:28:26.395Z,15.57
2023-01-25T15:30:53.781Z,16.43
2023-01-25T15:33:25.003Z,17.13
2023-01-25T15:35:52.370Z,17.50
2023-01-25T15:38:19.612Z,17.03
2023-01-25T15:40:47.110Z,17.50
2023-01-25T15:43:17.891Z,16.93
2023-01-25T15:45:46.432Z,18.73
2023-01-25T15:48:18.705Z,18.10
2023-01-25T15:50:45.859Z,16.43
2023-01-25T15:53:17.280Z,19.67
2023-01-25T15:55:45.845Z,16.80
2023-01-25T15:58:15.455Z,20.27
2023-01-25T16:00:44.726Z,18.63
2023-01-25T16:03:13.043Z,18.57
2023-01-25T16:05:40.215Z,19.47
2023-01-25T16:08:07.486Z,18.20
2023-01-25T16:10:34.631Z,19.10
2023-01-25T16:13:02.475Z,17.93
2023-01-25T16:15:29.629Z,17.87
2023-01-25T16:17:57.185Z,16.37
2023-01-25T16:20:24.399Z,18.63
2023-01-25T16:22:51.559Z,17.23
2023-01-25T16:25:18.704Z,19.13
2023-01-25T16:27:45.933Z,17.10
2023-01-25T16:30:18.632Z,17.67
2023-01-25T16:32:46.704Z,17.60
2023-01-25T16:35:14.215Z,19.13
2023-01-25T16:37:41.340Z,19.13
2023-01-25T16:40:18.502Z,17.70
2023-01-25T16:42:45.630Z,17.73
2023-01-25T16:45:12.771Z,18.27
2023-01-25T16:47:39.916Z,18.43
2023-01-25T16:50:12.873Z,17.47
2023-01-25T16:52:43.435Z,18.07
2023-01-25T16:55:11.739Z,17.83
2023-01-25T16:57:39.604Z,18.20
2023-01-25T17:00:10.392Z,17.90
2023-01-25T17:02:40.054Z,17.77
2023-01-25T17:05:09.935Z,18.47
2023-01-25T17:07:37.319Z,19.17
2023-01-25T17:10:06.568Z,19.43
2023-01-25T17:12:33.753Z,18.43
2023-01-25T17:15:01.005Z,19.10
2023-01-25T17:17:29.771Z,18.10
2023-01-25T17:19:56.957Z,19.27
2023-01-25T17:22:24.199Z,19.40
2023-01-25T17:24:51.361Z,20.07
2023-01-25T17:27:18.760Z,18.47
2023-01-25T17:29:46.061Z,19.67
2023-01-25T17:32:13.232Z,19.27
2023-01-25T17:34:40.407Z,20.27
2023-01-25T17:37:07.534Z,19.67
2023-01-25T17:39:35.122Z,18.77
2023-01-25T17:42:02.288Z,19.03
2023-01-25T17:44:29.700Z,17.90
2023-01-25T17:46:56.832Z,18.23
2023-01-25T17:49:26.160Z,18.20
2023-01-25T17:51:53.353Z,19.77
2023-01-25T17:54:20.694Z,17.20
2023-01-25T17:56:47.901Z,20.17
2023-01-25T17:59:15.057Z,18.83
2023-01-25T18:01:45.059Z,21.60
2023-01-25T18:04:13.380Z,18.13
2023-01-25T18:06:40.622Z,22.60
2023-01-25T18:09:07.759Z,20.13
2023-01-25T18:11:35.906Z,18.50
2023-01-25T18:14:04.718Z,18.77
2023-01-25T18:16:32.914Z,18.40
2023-01-25T18:19:00.840Z,19.93
2023-01-25T18:21:29.450Z,19.63
2023-01-25T18:23:57.703Z,17.73
2023-01-25T18:26:26.643Z,19.80
2023-01-25T18:28:55.289Z,19.90
2023-01-25T18:31:22.547Z,21.30
2023-01-25T18:33:49.981Z,19.87
2023-01-25T18:36:18.356Z,20.53
2023-01-25T18:38:45.777Z,19.50
2023-01-25T18:41:13.058Z,19.73
2023-01-25T18:43:40.207Z,19.63
2023-01-25T18:46:07.515Z,21.67
2023-01-25T18:48:35.037Z,20.63
2023-01-25T18:51:05.239Z,18.13
2023-01-25T18:53:33.242Z,18.57
2023-01-25T18:56:00.384Z,18.57
2023-01-25T18:58:27.549Z,19.27
2023-01-25T19:01:01.812Z,18.73
2023-01-25T19:03:30.475Z,20.23
2023-01-25T19:05:58.480Z,19.67
2023-01-25T19:08:26.247Z,20.50
2023-01-25T19:11:00.251Z,19.27
2023-01-25T19:13:27.752Z,20.30
2023-01-25T19:16:05.608Z,21.20
2023-01-25T19:18:37.200Z,20.13
2023-01-25T19:21:08.184Z,21.43
2023-01-25T19:23:38.690Z,21.40
2023-01-25T19:26:06.655Z,21.07
2023-01-25T19:28:38.766Z,20.80
2023-01-25T19:31:09.853Z,21.17
2023-01-25T19:33:37.356Z,21.77
2023-01-25T19:36:05.313Z,20.23
2023-01-25T19:38:32.954Z,22.10
2023-01-25T19:41:04.560Z,20.20
2023-01-25T19:43:32.746Z,22.10
2023-01-25T19:46:09.921Z,21.03
2023-01-25T19:48:37.589Z,19.70
2023-01-25T19:51:37.015Z,18.83
2023-01-25T19:54:08.378Z,19.43
2023-01-25T19:56:36.647Z,20.70
2023-01-25T19:59:05.215Z,20.00
2023-01-25T20:01:32.658Z,22.73
2023-01-25T20:04:00.923Z,21.80
2023-01-25T20:06:28.327Z,20.03
2023-01-25T20:08:55.477Z,19.97
2023-01-25T20:11:23.939Z,20.63
2023-01-25T20:13:52.426Z,20.43
2023-01-25T20:16:20.004Z,21.27
2023-01-25T20:18:48.097Z,19.77
2023-01-25T20:21:16.675Z,21.33
2023-01-25T20:23:44.958Z,20.87
2023-01-25T20:26:13.877Z,21.17
2023-01-25T20:28:41.430Z,21.03
2023-01-25T20:31:22.328Z,21.13
2023-01-25T20:33:50.291Z,21.77
2023-01-25T20:36:17.828Z,23.10
2023-01-25T20:38:44.995Z,20.20
2023-01-25T20:41:16.539Z,20.63
2023-01-25T20:43:47.865Z,21.17
2023-01-25T20:46:15.733Z,20.83
2023-01-25T20:48:43.269Z,20.03
2023-01-25T20:51:13.006Z,19.70
2023-01-25T20:53:40.879Z,19.30
2023-01-25T20:56:08.757Z,19.10
2023-01-25T20:58:35.952Z,19.30
2023-01-25T21:01:03.153Z,20.77
2023-01-25T21:03:30.349Z,21.07
2023-01-25T21:05:58.740Z,20.70
2023-01-25T21:08:26.157Z,21.33
2023-01-25T21:10:53.302Z,21.03
2023-01-25T21:13:20.906Z,20.73
2023-01-25T21:15:58.631Z,20.07
2023-01-25T21:18:27.780Z,20.77
2023-01-25T21:20:59.665Z,19.70
2023-01-25T21:23:26.871Z,20.27
2023-01-25T21:25:53.996Z,20.70
2023-01-25T21:28:21.112Z,20.67
2023-01-25T21:30:48.260Z,22.73
2023-01-25T21:33:15.417Z,20.40
2023-01-25T21:35:42.563Z,20.87
2023-01-25T21:38:09.721Z,19.93
2023-01-25T21:40:36.873Z,20.60
2023-01-25T21:43:04.129Z,20.67
2023-01-25T21:45:50.188Z,20.57
2023-01-25T21:48:37.387Z,20.97
2023-01-25T21:51:23.069Z,20.90
2023-01-25T21:53:50.201Z,22.30
2023-01-25T21:56:17.348Z,22.03
2023-01-25T21:58:44.508Z,21.63
2023-01-25T22:01:11.724Z,21.70
2023-01-25T22:03:38.928Z,21.97
2023-01-25T22:06:06.214Z,21.47
2023-01-25T22:08:33.330Z,21.90
2023-01-25T22:11:04.511Z,20.20
2023-01-25T22:13:31.671Z,20.83
2023-01-25T22:15:59.991Z,20.60
2023-01-25T22:18:27.705Z,21.77
2023-01-25T22:21:01.591Z,22.03
2023-01-25T22:23:29.114Z,19.97
2023-01-25T22:26:01.433Z,20.30
2023-01-25T22:28:28.936Z,20.77
2023-01-25T22:30:56.095Z,20.50
2023-01-25T22:33:23.307Z,23.40
2023-01-25T22:35:50.461Z,22.50
2023-01-25T22:38:17.614Z,22.70
2023-01-25T22:40:44.733Z,22.30
2023-01-25T22:43:11.863Z,21.67
2023-01-25T22:45:38.992Z,22.00
2023-01-25T22:48:06.216Z,22.63
2023-01-25T22:50:33.760Z,22.97
2023-01-25T22:53:00.883Z,22.63
2023-01-25T22:55:30.089Z,22.43
2023-01-25T22:57:57.208Z,22.50
2023-01-25T23:00:24.354Z,21.83
2023-01-25T23:02:51.499Z,22.23
2023-01-25T23:05:18.615Z,22.57
2023-01-25T23:07:45.764Z,21.93
2023-01-25T23:10:13.162Z,22.20
2023-01-25T23:12:40.404Z,23.00
2023-01-25T23:15:15.365Z,22.30
2023-01-25T23:18:02.087Z,23.13
2023-01-25T23:20:30.011Z,22.47
2023-01-25T23:22:57.355Z,20.80
2023-01-25T23:25:24.506Z,20.80
2023-01-25T23:27:51.702Z,22.33
2023-01-25T23:30:19.164Z,21.90
2023-01-25T23:32:49.115Z,22.60
2023-01-25T23:35:20.575Z,21.63
2023-01-25T23:37:48.561Z,21.70
2023-01-25T23:40:15.995Z,22.07
2023-01-25T23:42:43.176Z,21.53
2023-01-25T23:45:11.219Z,22.73
2023-01-25T23:47:38.654Z,23.13
2023-01-25T23:50:06.291Z,21.80
2023-01-25T23:52:34.977Z,22.67
2023-01-25T23:55:02.289Z,22.73
2023-01-25T23:57:29.431Z,22.57
2023-01-25T23:59:56.555Z,22.00
